createdAt,value
2022-09-07T08:30:34.824Z,22.00
2022-09-07T08:33:02.002Z,21.90
2022-09-07T08:35:29.215Z,22.00
2022-09-07T08:37:56.292Z,22.00
2022-09-07T08:40:23.436Z,22.00
2022-09-07T08:43:15.834Z,22.10
2022-09-07T08:45:50.542Z,22.10
2022-09-07T08:48:22.585Z,22.20
2022-09-07T08:51:06.908Z,22.10
2022-09-07T08:53:40.225Z,22.20
2022-09-07T08:56:12.462Z,22.30
2022-09-07T08:58:50.129Z,22.30
2022-09-07T09:01:35.475Z,22.40
2022-09-07T09:04:20.761Z,22.50
2022-09-07T09:07:16.828Z,22.60
2022-09-07T09:10:20.636Z,22.60
2022-09-07T09:13:11.934Z,22.70
2022-09-07T09:16:08.540Z,22.70
2022-09-07T09:19:00.099Z,22.70
2022-09-07T09:21:27.537Z,22.80
2022-09-07T09:24:02.070Z,22.90
2022-09-07T09:26:34.002Z,23.00
2022-09-07T09:29:21.464Z,23.00
2022-09-07T09:31:48.562Z,23.00
2022-09-07T09:34:17.888Z,23.00
2022-09-07T09:36:53.765Z,23.10
2022-09-07T09:39:32.578Z,23.20
2022-09-07T09:42:14.380Z,23.30
2022-09-07T09:44:42.757Z,23.30
2022-09-07T09:47:32.567Z,23.40
2022-09-07T09:50:07.028Z,23.50
2022-09-07T09:52:45.393Z,23.60
2022-09-07T09:55:34.896Z,23.70
2022-09-07T10:03:57.654Z,23.80
2022-09-07T10:06:27.084Z,23.80
2022-09-07T10:08:54.134Z,23.80
2022-09-07T10:14:42.162Z,23.80
2022-09-07T10:17:25.542Z,23.90
2022-09-07T10:19:52.794Z,23.90
2022-09-07T10:22:22.487Z,24.00
2022-09-07T10:24:50.886Z,24.00
2022-09-07T10:27:38.740Z,24.10
2022-09-07T10:30:16.673Z,24.20
2022-09-07T10:33:08.249Z,24.20
2022-09-07T10:35:45.411Z,24.20
2022-09-07T10:38:17.526Z,24.30
2022-09-07T10:40:52.920Z,24.30
2022-09-07T10:43:32.458Z,24.30
2022-09-07T10:49:27.462Z,24.20
2022-09-07T10:52:24.174Z,24.40
2022-09-07T10:54:54.525Z,24.50
2022-09-07T10:57:28.985Z,24.60
2022-09-07T11:00:15.631Z,24.60
2022-09-07T11:06:00.889Z,24.70
2022-09-07T11:12:05.108Z,24.70
2022-09-07T11:14:42.828Z,24.50
2022-09-07T11:17:17.181Z,24.60
2022-09-07T11:19:47.734Z,24.50
2022-09-07T11:22:20.524Z,24.60
2022-09-07T11:25:36.336Z,24.70
2022-09-07T11:28:13.551Z,24.80
2022-09-07T11:30:46.519Z,24.90
2022-09-07T11:33:23.756Z,25.10
2022-09-07T11:35:56.061Z,25.30
2022-09-07T11:38:34.028Z,25.50
2022-09-07T11:41:29.692Z,25.60
2022-09-07T11:44:13.536Z,25.40
2022-09-07T11:46:53.146Z,25.20
2022-09-07T11:49:21.216Z,25.20
2022-09-07T11:51:53.680Z,25.10
2022-09-07T11:54:40.033Z,25.30
2022-09-07T11:57:19.903Z,25.40
2022-09-07T12:00:18.500Z,25.40
2022-09-07T12:03:04.864Z,25.20
2022-09-07T12:05:54.239Z,25.10
2022-09-07T12:08:39.799Z,25.10
2022-09-07T12:11:44.157Z,25.10
2022-09-07T12:14:11.211Z,25.00
2022-09-07T12:17:07.396Z,25.00
2022-09-07T12:19:34.614Z,25.00
2022-09-07T12:22:02.098Z,25.00
2022-09-07T12:24:44.921Z,25.10
2022-09-07T12:27:21.573Z,25.10
2022-09-07T12:29:57.137Z,25.00
2022-09-07T12:32:57.629Z,25.00
2022-09-07T12:35:28.689Z,24.90
2022-09-07T12:38:01.113Z,24.90
2022-09-07T12:40:32.298Z,25.00
2022-09-07T12:43:14.278Z,25.00
2022-09-07T12:45:42.001Z,25.00
2022-09-07T12:48:17.901Z,24.90
2022-09-07T12:50:57.041Z,24.90
2022-09-07T12:53:57.784Z,24.80
2022-09-07T12:59:40.900Z,24.80
2022-09-07T13:02:22.319Z,25.00
2022-09-07T13:04:58.286Z,25.00
2022-09-07T13:08:04.316Z,25.20
2022-09-07T13:10:40.881Z,25.00
2022-09-07T13:14:01.900Z,24.90
2022-09-07T13:16:11.715Z,24.80
2022-09-07T13:18:43.303Z,24.90
2022-09-07T13:21:11.924Z,25.00
2022-09-07T13:23:43.046Z,25.20
2022-09-07T13:26:32.519Z,25.20
2022-09-07T13:29:04.623Z,25.20
2022-09-07T13:31:51.715Z,25.40
2022-09-07T13:35:04.726Z,25.40
2022-09-07T13:37:45.102Z,25.50
2022-09-07T13:40:19.013Z,25.50
2022-09-07T13:42:47.317Z,25.40
2022-09-07T13:45:28.695Z,25.30
2022-09-07T13:48:13.819Z,25.30
2022-09-07T13:50:55.401Z,25.20
2022-09-07T13:53:45.355Z,25.20
2022-09-07T13:56:30.267Z,25.10
2022-09-07T13:58:57.672Z,25.00
2022-09-07T14:01:27.018Z,25.00
2022-09-07T14:04:07.375Z,24.90
2022-09-07T14:06:36.736Z,24.80
2022-09-07T14:09:09.111Z,24.80
2022-09-07T14:11:36.164Z,24.90
2022-09-07T14:14:17.370Z,24.90
2022-09-07T14:16:54.267Z,25.00
2022-09-07T14:19:24.959Z,25.10
2022-09-07T14:21:59.447Z,25.10
2022-09-07T14:24:34.370Z,25.10
2022-09-07T14:27:02.272Z,25.20
2022-09-07T14:29:34.816Z,25.10
2022-09-07T14:32:03.894Z,25.00
2022-09-07T14:34:34.747Z,25.00
2022-09-07T14:37:12.468Z,24.90
2022-09-07T14:39:41.361Z,24.80
2022-09-07T14:42:12.022Z,24.80
2022-09-07T14:44:45.383Z,24.70
2022-09-07T14:47:29.121Z,24.60
2022-09-07T14:50:05.034Z,24.50
2022-09-07T14:52:42.387Z,24.50
2022-09-07T14:55:31.260Z,24.70
2022-09-07T14:58:13.708Z,24.70
2022-09-07T15:00:46.562Z,24.80
2022-09-07T15:03:29.333Z,24.90
2022-09-07T15:06:00.827Z,25.00
2022-09-07T15:08:46.024Z,25.00
2022-09-07T15:14:11.818Z,25.00
2022-09-07T15:16:43.042Z,24.90
2022-09-07T15:19:16.391Z,24.90
2022-09-07T15:21:45.110Z,24.90
2022-09-07T15:24:12.444Z,24.90
2022-09-07T15:29:29.383Z,24.90
2022-09-07T15:32:03.800Z,24.90
2022-09-07T15:34:32.470Z,24.80
2022-09-07T15:37:01.030Z,24.70
2022-09-07T15:39:29.954Z,24.70
2022-09-07T15:41:59.047Z,24.70
2022-09-07T15:44:28.651Z,24.60
2022-09-07T15:49:50.113Z,24.60
2022-09-07T15:52:18.720Z,24.60
2022-09-07T15:54:46.731Z,24.60
2022-09-07T16:00:00.962Z,24.60
2022-09-07T16:05:16.231Z,24.60
2022-09-07T16:10:31.725Z,24.60
2022-09-07T16:13:01.846Z,24.60
2022-09-07T16:15:30.038Z,24.60
2022-09-07T16:17:57.567Z,24.60
2022-09-07T16:20:24.824Z,24.60
2022-09-07T16:25:41.753Z,24.60
2022-09-07T16:28:09.313Z,24.50
2022-09-07T16:30:40.076Z,24.50
2022-09-07T16:33:07.743Z,24.50
2022-09-07T16:35:34.922Z,24.40
2022-09-07T16:40:51.196Z,24.40
2022-09-07T16:43:19.047Z,24.30
2022-09-07T16:48:36.208Z,24.30
2022-09-07T16:51:05.008Z,24.20
2022-09-07T16:53:35.691Z,24.10
2022-09-07T16:56:05.386Z,24.10
2022-09-07T16:58:37.645Z,24.10
2022-09-07T17:01:06.965Z,24.10
2022-09-07T17:03:35.516Z,24.00
2022-09-07T17:06:03.949Z,23.90
2022-09-07T17:08:32.356Z,23.90
2022-09-07T17:11:04.909Z,23.90
2022-09-07T17:13:33.715Z,23.90
2022-09-07T17:16:10.532Z,23.90
2022-09-07T17:21:28.863Z,23.80
2022-09-07T17:23:56.274Z,23.80
2022-09-07T17:26:26.681Z,23.60
2022-09-07T17:28:59.568Z,23.40
2022-09-07T17:34:18.059Z,23.10
2022-09-07T17:36:45.319Z,22.90
2022-09-07T17:39:17.572Z,22.90
2022-09-07T17:41:46.372Z,22.80
2022-09-07T17:44:13.517Z,22.50
2022-09-07T17:46:40.954Z,22.30
2022-09-07T17:49:12.483Z,22.10
2022-09-07T17:51:40.085Z,21.80
2022-09-07T17:54:11.644Z,21.80
2022-09-07T17:56:40.236Z,21.70
2022-09-07T18:01:55.609Z,21.80
2022-09-07T18:04:23.221Z,21.80
2022-09-07T18:06:50.498Z,21.80
2022-09-07T18:09:19.606Z,21.90
2022-09-07T18:11:48.741Z,21.90
2022-09-07T18:14:17.332Z,21.90
2022-09-07T18:16:46.064Z,21.90
2022-09-07T18:19:13.917Z,21.90
2022-09-07T18:21:42.821Z,21.90
2022-09-07T18:24:16.855Z,21.90
2022-09-07T18:26:50.174Z,21.90
2022-09-07T18:29:31.322Z,21.90
2022-09-07T18:32:02.638Z,21.90
2022-09-07T18:34:31.776Z,21.90
2022-09-07T18:36:59.922Z,21.90
2022-09-07T18:39:27.519Z,22.00
2022-09-07T18:41:55.475Z,22.00
2022-09-07T18:47:21.721Z,22.00
2022-09-07T18:49:51.607Z,22.00
2022-09-07T18:55:08.618Z,22.10
2022-09-07T18:57:36.557Z,22.10
2022-09-07T19:00:06.744Z,22.10
2022-09-07T19:02:33.990Z,22.00
2022-09-07T19:07:48.722Z,22.00
2022-09-07T19:10:16.928Z,21.90
2022-09-07T19:12:46.128Z,22.00
2022-09-07T19:15:14.042Z,21.90
2022-09-07T19:17:41.259Z,21.90
2022-09-07T19:20:09.128Z,22.00
2022-09-07T19:22:36.239Z,21.90
2022-09-07T19:25:03.787Z,21.90
2022-09-07T19:27:33.035Z,21.80
2022-09-07T19:30:00.263Z,21.70
2022-09-07T19:32:27.518Z,21.70
2022-09-07T19:34:55.447Z,21.70
2022-09-07T19:37:25.510Z,21.70
2022-09-07T19:39:56.051Z,21.60
2022-09-07T19:42:24.164Z,21.70
2022-09-07T19:44:52.084Z,21.60
2022-09-07T19:47:19.616Z,21.60
2022-09-07T19:49:47.002Z,21.60
2022-09-07T19:52:14.151Z,21.60
2022-09-07T19:54:41.223Z,21.60
2022-09-07T19:57:08.552Z,21.60
2022-09-07T19:59:35.755Z,21.60
2022-09-07T20:02:03.010Z,21.60
2022-09-07T20:04:30.273Z,21.70
2022-09-07T20:06:57.638Z,21.60
2022-09-07T20:09:25.805Z,21.50
2022-09-07T20:11:53.148Z,21.40
2022-09-07T20:14:20.379Z,21.30
2022-09-07T20:16:48.005Z,21.30
2022-09-07T20:19:15.373Z,21.20
2022-09-07T20:21:43.252Z,21.10
2022-09-07T20:24:14.606Z,21.10
2022-09-07T20:26:41.922Z,21.10
2022-09-07T20:31:58.301Z,21.00
2022-09-07T20:34:26.978Z,21.00
2022-09-07T20:36:54.854Z,21.00
2022-09-07T20:39:22.235Z,21.00
2022-09-07T20:41:49.695Z,20.90
2022-09-07T20:44:17.179Z,20.90
2022-09-07T20:46:44.612Z,21.00
2022-09-07T20:49:11.865Z,21.00
2022-09-07T20:51:39.094Z,21.00
2022-09-07T20:54:07.213Z,21.00
2022-09-07T20:56:34.546Z,20.90
2022-09-07T20:59:03.594Z,20.90
2022-09-07T21:01:32.977Z,20.90
2022-09-07T21:04:01.083Z,20.90
2022-09-07T21:06:30.881Z,20.80
2022-09-07T21:08:59.684Z,20.80
2022-09-07T21:11:32.524Z,20.80
2022-09-07T21:14:01.507Z,20.80
2022-09-07T21:16:29.393Z,20.80
2022-09-07T21:18:59.428Z,20.80
2022-09-07T21:21:28.367Z,20.80
2022-09-07T21:23:57.187Z,20.70
2022-09-07T21:26:24.951Z,20.70
2022-09-07T21:29:00.737Z,20.70
2022-09-07T21:31:29.742Z,20.70
2022-09-07T21:33:58.744Z,20.60
2022-09-07T21:36:26.529Z,20.60
2022-09-07T21:38:54.526Z,20.60
2022-09-07T21:41:23.618Z,20.60
2022-09-07T21:43:59.123Z,20.60
2022-09-07T21:46:27.832Z,20.50
2022-09-07T21:48:56.434Z,20.50
2022-09-07T21:51:24.639Z,20.50
2022-09-07T21:53:53.106Z,20.50
2022-09-07T21:56:20.789Z,20.50
2022-09-07T21:58:48.390Z,20.50
2022-09-07T22:01:19.182Z,20.50
2022-09-07T22:03:48.254Z,20.40
2022-09-07T22:06:15.591Z,20.40
2022-09-07T22:08:43.231Z,20.40
2022-09-07T22:11:18.485Z,20.40
2022-09-07T22:13:45.961Z,20.40
2022-09-07T22:16:14.773Z,20.40
2022-09-07T22:18:46.227Z,20.40
2022-09-07T22:21:22.632Z,20.40
2022-09-07T22:23:52.398Z,20.40
2022-09-07T22:26:22.233Z,20.40
2022-09-07T22:28:49.907Z,20.40
2022-09-07T22:31:23.057Z,20.40
2022-09-07T22:33:51.686Z,20.30
2022-09-07T22:36:33.622Z,20.30
2022-09-07T22:39:03.502Z,20.30
2022-09-07T22:41:33.890Z,20.30
2022-09-07T22:44:01.347Z,20.30
2022-09-07T22:46:30.992Z,20.20
2022-09-07T22:48:59.193Z,20.20
2022-09-07T22:51:27.122Z,20.20
2022-09-07T22:53:55.756Z,20.30
2022-09-07T22:56:29.387Z,20.30
2022-09-07T22:58:59.515Z,20.30
2022-09-07T23:01:28.518Z,20.30
2022-09-07T23:03:56.407Z,20.30
2022-09-07T23:06:33.314Z,20.30
2022-09-07T23:09:04.286Z,20.20
2022-09-07T23:11:31.646Z,20.30
2022-09-07T23:14:02.538Z,20.20
2022-09-07T23:16:30.251Z,20.20
2022-09-07T23:18:58.498Z,20.20
2022-09-07T23:21:27.223Z,20.20
2022-09-07T23:23:56.944Z,20.20
2022-09-07T23:26:26.112Z,20.10
2022-09-07T23:29:04.476Z,20.10
2022-09-07T23:31:34.366Z,20.10
2022-09-07T23:34:02.035Z,20.00
2022-09-07T23:36:29.336Z,20.00
2022-09-07T23:38:57.863Z,20.00
2022-09-07T23:41:26.384Z,20.00
2022-09-07T23:43:54.730Z,20.00
2022-09-07T23:46:22.329Z,20.00
2022-09-07T23:48:49.778Z,20.00
2022-09-07T23:51:22.786Z,20.00
2022-09-07T23:53:51.847Z,20.00
2022-09-07T23:56:19.512Z,20.00
2022-09-07T23:58:46.733Z,20.00
